createdAt,value
2023-02-11T00:12:49.086Z,3.37
2023-02-11T00:32:49.053Z,3.37
2023-02-11T00:52:49.070Z,3.25
2023-02-11T01:12:49.084Z,3.37
2023-02-11T01:32:49.083Z,3.31
2023-02-11T01:52:49.106Z,3.18
2023-02-11T02:12:49.282Z,3.18
2023-02-11T02:32:49.209Z,3.37
2023-02-11T02:52:49.221Z,3.18
2023-02-11T03:12:49.223Z,3.43
2023-02-11T03:32:49.229Z,3.50
2023-02-11T03:52:49.241Z,3.18
2023-02-11T04:12:49.253Z,3.31
2023-02-11T04:32:49.282Z,3.18
2023-02-11T04:52:49.268Z,3.31
2023-02-11T05:12:49.270Z,3.37
2023-02-11T05:32:49.288Z,3.37
2023-02-11T05:52:49.302Z,3.37
2023-02-11T06:12:49.294Z,3.25
2023-02-11T06:32:49.303Z,3.37
2023-02-11T06:52:49.416Z,3.37
2023-02-11T07:12:49.321Z,3.18
2023-02-11T07:32:49.321Z,3.43
2023-02-11T08:12:49.436Z,3.43
2023-02-11T08:32:49.388Z,3.43
2023-02-11T08:52:49.377Z,3.43
2023-02-11T09:12:49.389Z,3.43
2023-02-11T09:32:49.406Z,3.43
2023-02-11T09:52:49.302Z,3.62
2023-02-11T10:12:49.312Z,3.50
2023-02-11T10:32:49.380Z,3.50
2023-02-11T10:52:49.330Z,3.50
2023-02-11T11:12:49.344Z,3.50
2023-02-11T11:32:49.373Z,3.56
2023-02-11T11:52:49.350Z,3.56
2023-02-11T12:12:49.385Z,3.62
2023-02-11T12:32:49.370Z,3.56
2023-02-11T12:52:49.404Z,3.43
2023-02-11T13:12:49.284Z,3.50
2023-02-11T13:32:49.304Z,3.62
2023-02-11T13:52:49.484Z,3.50
2023-02-11T14:12:49.317Z,3.68
2023-02-11T14:32:49.327Z,3.75
2023-02-11T14:52:49.338Z,3.75
2023-02-11T15:12:49.248Z,3.81
2023-02-11T15:32:49.260Z,3.75
2023-02-11T15:52:49.325Z,3.62
2023-02-11T16:12:49.276Z,3.62
2023-02-11T16:32:49.284Z,3.68
2023-02-11T16:52:49.295Z,3.68
2023-02-11T17:12:49.295Z,3.68
2023-02-11T17:32:49.975Z,3.56
2023-02-11T17:52:49.313Z,3.56
2023-02-11T18:12:49.220Z,3.68
2023-02-11T18:32:49.273Z,3.62
2023-02-11T18:52:49.265Z,3.62
2023-02-11T19:12:49.247Z,3.62
2023-02-11T19:32:49.257Z,3.62
2023-02-11T19:52:49.270Z,3.62
2023-02-11T20:12:49.288Z,3.62
2023-02-11T20:32:49.289Z,3.62
2023-02-11T20:52:49.282Z,3.81
2023-02-11T21:12:49.295Z,3.62
2023-02-11T21:32:49.313Z,3.68
2023-02-11T21:52:49.314Z,3.62
2023-02-11T22:12:49.327Z,3.62
2023-02-11T22:32:49.320Z,3.56
2023-02-11T22:52:49.234Z,3.62
2023-02-11T23:12:49.235Z,3.62
2023-02-11T23:32:49.312Z,3.56
2023-02-11T23:52:49.262Z,3.62
